עמוד ראשי
תמונות לווין תחזית 10-יוםאקליםתחזית ים סופות טרופיות ברקים שדות תעופהשאלות נפוצות עלון אודות
מזג אוויר : אירופה אפריקה אמריקה הצפונית אמריקה הדרומית אסיה אוסטרליה-אוקיאניה אחרים
שפות איש קשר

סלוניקי, יוון

נמל התעופה הבינלאומי סלוניקי מקדוניה

קו רוחב: 40-31N, קו אורך: 022-58E, גובה: 8מטר


METAR: LGTS 291620Z 20006KT CAVOK 31/06 Q1019 NOSIG
TAF: LGTS 291100Z 2912/3012 18010KT CAVOK BECMG 2918/2920 VRB03KT BECMG 3003/3005 33015KT

זמן: 19:51 (16:51 UTC)

תצפית מזג אוויר נוכחית

הדו"ח נערך לפני 31דקות, בשעה 16:20 UTC
רוח 6קשר מכיוון דרום/דרום-מערב
טמפרטורת 31 צלסיוס
לחות 21%
לחץ 1019 hPa
ראות 10 קילומטר או יותר
ללא עננים שבסיסם נמוך מ 1500 רגל או קומולונימבוס

שנה יחידות

תחזית

הדו"ח נערך לפני 5 שעות ו 51דקות, בשעה 11:00 UTC
תחזית בתוקף מ 29 ב 12 UTC עד 30 ב 12 UTC
רוח 10קשר מכיוון דרום
ראות 10 קילומטר או יותר
ללא עננים שבסיסם נמוך מ 1500 רגל או קומולונימבוס
יעשה מ
29 ב 18 UTC עד 29 ב 20 UTC
רוח 3קשר עם כיוונים משתנים
יעשה מ
30 ב 03 UTC עד 30 ב 05 UTC
רוח 15קשר מכיוון צפון/צפון-מערב
המידע באתר זה מותנה של תניית פטור
מזג אוויר : אירופה אפריקה אמריקה הצפונית אמריקה הדרומית אסיה אוסטרליה-אוקיאניה אחרים
תמונות לווין תחזית 10-יוםאקליםתחזית ים סופות טרופיות ברקים שדות תעופהשאלות נפוצות שפות איש קשר עלון אודות